首页
METAR-TAF:

METAR-TAF

机场 :

庫拉索國際機場

库拉索, 荷属安的列斯

纬度: 12-12N, 经度: 068-58W, 海拔: 9米

当前天气观测

该预报发布于1小时和28分钟前的15:00 UTC
风速13节,风向
温度 33°C
湿度 63%
气压 1014 hPa
能见度10公里或以上
散云层高于2200英尺

METAR: TNCC 211500Z 10013KT 9999 SCT022 33/25 Q1014 NOSIG

时间: 12:28 (16:28 UTC)

预报

该预报发布于5小时和13分钟前的11:15 UTC
预报有效从21日的 12点(UTC)到 22日的 12点(UTC)
风速15节,风向
能见度10公里或以上
散云层高于2000英尺
几率 30% :
短暂存在
从 21日的 12点(UTC)到 21日的 17点(UTC)
风速15节,风向,有时为25节阵风
能見度: 7000
散云层高于1400英尺
多云层高于2000英尺
阵雨
几率 30% :
短暂存在
从 22日的 04点(UTC)到 22日的 12点(UTC)
风速20节,风向
能見度: 7000
散云层高于1400英尺
多云层高于2000英尺
阵雨,

TAF: TNCC 211115Z 2112/2212 10015KT 9999 SCT020 PROB30 TEMPO 2112/2117 09015G25KT 7000 SHRA SCT014 BKN020 PROB30 TEMPO 2204/2212 09020KT 7000 SHRA SCT014 BKN020

超过4000个机场的气象观测和天气预报(METAR&TAF报告)。

可查询的气象台以黄色和红色小点在地图上表示。

将鼠标移到小点上方,可查看气象台名称。

然后点击查看天气观测和预报。

如需切换地图:点击带黑十字的绿色按钮放大地图;点击带横线的绿色按钮缩小地图;或者点击绿色箭头查看邻近地区的地图。


METAR-TAF: